NORTHEAST SUFFOLK  -  Winter Weather Advisory Winter Weather Advisory        NORTHERN NASSAU  -  Winter Weather Advisory Winter Weather Advisory        NORTHWEST SUFFOLK  -  Winter Weather Advisory Winter Weather Advisory        SOUTHEAST SUFFOLK  -  Winter Weather Advisory Winter Weather Advisory        SOUTHERN NASSAU  -  Winter Weather Advisory Winter Weather Advisory        SOUTHWEST SUFFOLK  -  Winter Weather Advisory Winter Weather Advisory      

Active alerts

Northern Nassau
  Details for Northern Nassau Winter Weather Advisory
Southern Nassau
  Details for Southern Nassau Winter Weather Advisory
Northwest Suffolk
  Details for Northwest Suffolk Winter Weather Advisory
Southwest Suffolk
  Details for Southwest Suffolk Winter Weather Advisory
Northeast Suffolk
  Details for Northeast Suffolk Winter Weather Advisory
Southeast Suffolk
  Details for Southeast Suffolk Winter Weather Advisory


WXM80 ListenWXM80 Stop

You find our weather info also at:

UK Metoffice

WeatherCloud

Weather Underground

Northeastern Weather Network

AWEKAS

Citizen Weather Observer Program (CWOP)

HAMweather, WeatherForYou, PWS Weather


Weather Underground History page Text

Daily Summary for March 9, 2017 Units:  Both    English   Metric
« Previous Day
Next Day »
Daily Weekly Monthly Yearly Custom
  High: Low: Average:
Temperature: 59.1 °F /  15.1 °C 46.3 °F /  7.9 °C 53.2 °F /  11.8 °C
Dew Point: 31.5 °F /  -0.3 °C 21.1 °F /  -6.1 °C 26.9 °F /  -2.8 °C
Humidity: 50 % 24 % 37 %
Wind Speed: 13.5 mph /  21.7 km/h - 5.9 mph /  9.5 km/h
Wind Gust: 30.0 mph /  48.3 km/h - -
Wind:- - West
Pressure: 29.97 in /  1014.8 hPa 29.86 in /  1011.1 hPa -
Precipitation: 0.00 in /  0 mm    
Historical Graphs
 
 
Tabular Data for March 9, 2017
Time Temperature Dew Point Pressure Wind Wind Speed Wind Gust Humidity Rainfall Rate (Hourly)
00:03 52.5 °F /  11.4 °C 26.9 °F /  -2.8 °C 29.86 in /  1011.1 hPa SW 5.9 mph /  9.5 km/h 11.5 mph /  18.5 km/h 37 % 0.00 in /  0 mm
00:08 53.0 °F /  11.7 °C 26.0 °F /  -3.3 °C 29.86 in /  1011.1 hPa SW 6.5 mph /  10.5 km/h 13.8 mph /  22.2 km/h 35 % 0.00 in /  0 mm
00:13 53.4 °F /  11.9 °C 25.7 °F /  -3.5 °C 29.86 in /  1011.1 hPa South 6.9 mph /  11.1 km/h 12.7 mph /  20.4 km/h 34 % 0.00 in /  0 mm
00:18 53.6 °F /  12 °C 27.9 °F /  -2.3 °C 29.86 in /  1011.1 hPa SSW 5.1 mph /  8.2 km/h 10.4 mph /  16.7 km/h 37 % 0.00 in /  0 mm
00:23 53.4 °F /  11.9 °C 28.4 °F /  -2 °C 29.86 in /  1011.1 hPa SW 8.1 mph /  13 km/h 15.0 mph /  24.1 km/h 38 % 0.00 in /  0 mm
00:28 53.3 °F /  11.8 °C 27.7 °F /  -2.4 °C 29.86 in /  1011.1 hPa West 5.2 mph /  8.4 km/h 10.0 mph /  16.1 km/h 37 % 0.00 in /  0 mm
00:33 53.6 °F /  12 °C 25.2 °F /  -3.8 °C 29.86 in /  1011.1 hPa WSW 10.3 mph /  16.6 km/h 20.7 mph /  33.3 km/h 33 % 0.00 in /  0 mm
00:38 54.3 °F /  12.4 °C 25.8 °F /  -3.4 °C 29.86 in /  1011.1 hPa SW 11.2 mph /  18 km/h 19.6 mph /  31.5 km/h 33 % 0.00 in /  0 mm
00:44 54.9 °F /  12.7 °C 26.3 °F /  -3.2 °C 29.86 in /  1011.1 hPa West 9.3 mph /  15 km/h 12.7 mph /  20.4 km/h 33 % 0.00 in /  0 mm
00:49 55.0 °F /  12.8 °C 26.4 °F /  -3.1 °C 29.87 in /  1011.4 hPa WSW 10.1 mph /  16.3 km/h 21.0 mph /  33.8 km/h 33 % 0.00 in /  0 mm
00:54 55.1 °F /  12.8 °C 26.5 °F /  -3.1 °C 29.86 in /  1011.1 hPa West 8.2 mph /  13.2 km/h 15.0 mph /  24.1 km/h 33 % 0.00 in /  0 mm
00:59 55.0 °F /  12.8 °C 26.4 °F /  -3.1 °C 29.86 in /  1011.1 hPa West 12.5 mph /  20.1 km/h 23.0 mph /  37 km/h 33 % 0.00 in /  0 mm
01:04 55.0 °F /  12.8 °C 26.4 °F /  -3.1 °C 29.87 in /  1011.4 hPa WSW 7.4 mph /  11.9 km/h 12.7 mph /  20.4 km/h 33 % 0.00 in /  0 mm
01:09 54.8 °F /  12.7 °C 28.3 °F /  -2.1 °C 29.87 in /  1011.4 hPa South 4.3 mph /  6.9 km/h 6.9 mph /  11.1 km/h 36 % 0.00 in /  0 mm
01:14 54.2 °F /  12.3 °C 29.1 °F /  -1.6 °C 29.87 in /  1011.4 hPa SW 5.1 mph /  8.2 km/h 6.9 mph /  11.1 km/h 38 % 0.00 in /  0 mm
01:19 53.5 °F /  11.9 °C 29.7 °F /  -1.3 °C 29.88 in /  1011.7 hPa SSW 4.2 mph /  6.8 km/h 6.9 mph /  11.1 km/h 40 % 0.00 in /  0 mm
01:24 52.8 °F /  11.6 °C 30.3 °F /  -0.9 °C 29.88 in /  1011.7 hPa SSW 2.8 mph /  4.5 km/h 4.6 mph /  7.4 km/h 42 % 0.00 in /  0 mm
01:29 52.1 °F /  11.2 °C 29.7 °F /  -1.3 °C 29.88 in /  1011.7 hPa SSW 1.8 mph /  2.9 km/h 3.5 mph /  5.6 km/h 42 % 0.00 in /  0 mm
01:34 51.5 °F /  10.8 °C 28.6 °F /  -1.9 °C 29.88 in /  1011.7 hPa WSW 2.7 mph /  4.3 km/h 11.5 mph /  18.5 km/h 41 % 0.00 in /  0 mm
01:39 51.4 °F /  10.8 °C 26.0 °F /  -3.3 °C 29.88 in /  1011.7 hPa West 6.4 mph /  10.3 km/h 11.5 mph /  18.5 km/h 37 % 0.00 in /  0 mm
01:45 52.1 °F /  11.2 °C 25.9 °F /  -3.4 °C 29.88 in /  1011.7 hPa West 10.9 mph /  17.5 km/h 23.0 mph /  37 km/h 36 % 0.00 in /  0 mm
01:50 52.8 °F /  11.6 °C 26.6 °F /  -3 °C 29.88 in /  1011.7 hPa West 7.5 mph /  12.1 km/h 16.1 mph /  25.9 km/h 36 % 0.00 in /  0 mm
01:55 53.1 °F /  11.7 °C 26.8 °F /  -2.9 °C 29.88 in /  1011.7 hPa West 9.2 mph /  14.8 km/h 13.8 mph /  22.2 km/h 36 % 0.00 in /  0 mm
02:00 53.3 °F /  11.8 °C 26.3 °F /  -3.2 °C 29.88 in /  1011.7 hPa WSW 10.1 mph /  16.3 km/h 17.0 mph /  27.4 km/h 35 % 0.00 in /  0 mm
02:05 53.6 °F /  12 °C 26.6 °F /  -3 °C 29.88 in /  1011.7 hPa West 5.8 mph /  9.3 km/h 21.9 mph /  35.2 km/h 35 % 0.00 in /  0 mm
02:10 53.7 °F /  12.1 °C 26.0 °F /  -3.3 °C 29.88 in /  1011.7 hPa NW 12.1 mph /  19.5 km/h 19.6 mph /  31.5 km/h 34 % 0.00 in /  0 mm
02:15 53.9 °F /  12.2 °C 26.1 °F /  -3.3 °C 29.89 in /  1012.1 hPa West 10.0 mph /  16.1 km/h 17.3 mph /  27.8 km/h 34 % 0.00 in /  0 mm
02:20 53.8 °F /  12.1 °C 26.8 °F /  -2.9 °C 29.88 in /  1011.7 hPa WSW 9.6 mph /  15.4 km/h 13.8 mph /  22.2 km/h 35 % 0.00 in /  0 mm
02:25 53.7 °F /  12.1 °C 26.7 °F /  -2.9 °C 29.88 in /  1011.7 hPa WSW 8.3 mph /  13.4 km/h 16.1 mph /  25.9 km/h 35 % 0.00 in /  0 mm
02:30 53.5 °F /  11.9 °C 27.2 °F /  -2.7 °C 29.89 in /  1012.1 hPa WSW 4.7 mph /  7.6 km/h 11.5 mph /  18.5 km/h 36 % 0.00 in /  0 mm
02:35 53.2 °F /  11.8 °C 26.9 °F /  -2.8 °C 29.88 in /  1011.7 hPa WSW 5.3 mph /  8.5 km/h 9.2 mph /  14.8 km/h 36 % 0.00 in /  0 mm
02:40 53.1 °F /  11.7 °C 26.8 °F /  -2.9 °C 29.88 in /  1011.7 hPa WSW 8.1 mph /  13 km/h 11.5 mph /  18.5 km/h 36 % 0.00 in /  0 mm
02:45 53.0 °F /  11.7 °C 25.3 °F /  -3.7 °C 29.88 in /  1011.7 hPa West 8.2 mph /  13.2 km/h 10.4 mph /  16.7 km/h 34 % 0.00 in /  0 mm
02:51 53.0 °F /  11.7 °C 25.3 °F /  -3.7 °C 29.88 in /  1011.7 hPa NW 7.9 mph /  12.7 km/h 13.8 mph /  22.2 km/h 34 % 0.00 in /  0 mm
02:56 53.2 °F /  11.8 °C 25.5 °F /  -3.6 °C 29.88 in /  1011.7 hPa West 7.9 mph /  12.7 km/h 11.5 mph /  18.5 km/h 34 % 0.00 in /  0 mm
03:01 53.3 °F /  11.8 °C 26.3 °F /  -3.2 °C 29.88 in /  1011.7 hPa SW 6.1 mph /  9.8 km/h 11.5 mph /  18.5 km/h 35 % 0.00 in /  0 mm
03:06 53.3 °F /  11.8 °C 26.3 °F /  -3.2 °C 29.88 in /  1011.7 hPa West 6.1 mph /  9.8 km/h 15.0 mph /  24.1 km/h 35 % 0.00 in /  0 mm
03:11 53.2 °F /  11.8 °C 26.2 °F /  -3.2 °C 29.88 in /  1011.7 hPa WSW 4.0 mph /  6.4 km/h 13.8 mph /  22.2 km/h 35 % 0.00 in /  0 mm
03:16 53.1 °F /  11.7 °C 26.1 °F /  -3.3 °C 29.87 in /  1011.4 hPa WSW 3.9 mph /  6.3 km/h 11.5 mph /  18.5 km/h 35 % 0.00 in /  0 mm
03:21 53.1 °F /  11.7 °C 25.4 °F /  -3.7 °C 29.87 in /  1011.4 hPa SSW 5.6 mph /  9 km/h 10.0 mph /  16.1 km/h 34 % 0.00 in /  0 mm
03:26 53.0 °F /  11.7 °C 25.3 °F /  -3.7 °C 29.87 in /  1011.4 hPa SW 7.3 mph /  11.7 km/h 12.7 mph /  20.4 km/h 34 % 0.00 in /  0 mm
03:31 53.0 °F /  11.7 °C 24.6 °F /  -4.1 °C 29.87 in /  1011.4 hPa SW 8.2 mph /  13.2 km/h 11.0 mph /  17.7 km/h 33 % 0.00 in /  0 mm
03:33 53.0 °F /  11.7 °C 24.6 °F /  -4.1 °C 29.87 in /  1011.4 hPa SSW 7.7 mph /  12.4 km/h 12.7 mph /  20.4 km/h 33 % 0.00 in /  0 mm
03:37 53.0 °F /  11.7 °C 25.3 °F /  -3.7 °C 29.87 in /  1011.4 hPa SSW 5.8 mph /  9.3 km/h 15.0 mph /  24.1 km/h 34 % 0.00 in /  0 mm
03:42 53.0 °F /  11.7 °C 25.3 °F /  -3.7 °C 29.87 in /  1011.4 hPa SW 8.4 mph /  13.5 km/h 15.0 mph /  24.1 km/h 34 % 0.00 in /  0 mm
03:47 53.0 °F /  11.7 °C 25.3 °F /  -3.7 °C 29.88 in /  1011.7 hPa SW 5.5 mph /  8.9 km/h 10.4 mph /  16.7 km/h 34 % 0.00 in /  0 mm
03:52 53.0 °F /  11.7 °C 25.3 °F /  -3.7 °C 29.88 in /  1011.7 hPa WSW 7.3 mph /  11.7 km/h 9.2 mph /  14.8 km/h 34 % 0.00 in /  0 mm
03:57 53.0 °F /  11.7 °C 25.3 °F /  -3.7 °C 29.88 in /  1011.7 hPa SSW 6.8 mph /  10.9 km/h 11.5 mph /  18.5 km/h 34 % 0.00 in /  0 mm
04:03 53.0 °F /  11.7 °C 26.0 °F /  -3.3 °C 29.88 in /  1011.7 hPa WSW 11.4 mph /  18.3 km/h 18.4 mph /  29.6 km/h 35 % 0.00 in /  0 mm
04:08 53.0 °F /  11.7 °C 26.0 °F /  -3.3 °C 29.88 in /  1011.7 hPa SW 10.1 mph /  16.3 km/h 19.6 mph /  31.5 km/h 35 % 0.00 in /  0 mm
04:13 53.0 °F /  11.7 °C 26.0 °F /  -3.3 °C 29.88 in /  1011.7 hPa WSW 6.7 mph /  10.8 km/h 16.0 mph /  25.7 km/h 35 % 0.00 in /  0 mm
04:18 52.9 °F /  11.6 °C 26.0 °F /  -3.3 °C 29.88 in /  1011.7 hPa SW 4.3 mph /  6.9 km/h 16.1 mph /  25.9 km/h 35 % 0.00 in /  0 mm
04:23 52.8 °F /  11.6 °C 26.6 °F /  -3 °C 29.88 in /  1011.7 hPa WSW 9.0 mph /  14.5 km/h 30.0 mph /  48.3 km/h 36 % 0.00 in /  0 mm
04:28 52.7 °F /  11.5 °C 26.5 °F /  -3.1 °C 29.88 in /  1011.7 hPa WSW 9.0 mph /  14.5 km/h 20.0 mph /  32.2 km/h 36 % 0.00 in /  0 mm
04:33 52.7 °F /  11.5 °C 26.5 °F /  -3.1 °C 29.89 in /  1012.1 hPa WSW 10.0 mph /  16.1 km/h 20.0 mph /  32.2 km/h 36 % 0.00 in /  0 mm
04:38 52.7 °F /  11.5 °C 26.5 °F /  -3.1 °C 29.89 in /  1012.1 hPa WSW 6.0 mph /  9.7 km/h 20.0 mph /  32.2 km/h 36 % 0.00 in /  0 mm
04:43 52.6 °F /  11.4 °C 26.4 °F /  -3.1 °C 29.89 in /  1012.1 hPa WSW 8.0 mph /  12.9 km/h 17.0 mph /  27.4 km/h 36 % 0.00 in /  0 mm
04:48 52.6 °F /  11.4 °C 26.4 °F /  -3.1 °C 29.89 in /  1012.1 hPa WSW 7.0 mph /  11.3 km/h 16.0 mph /  25.7 km/h 36 % 0.00 in /  0 mm
04:53 52.6 °F /  11.4 °C 25.7 °F /  -3.5 °C 29.89 in /  1012.1 hPa WSW 8.0 mph /  12.9 km/h 20.0 mph /  32.2 km/h 35 % 0.00 in /  0 mm
04:58 52.6 °F /  11.4 °C 25.7 °F /  -3.5 °C 29.89 in /  1012.1 hPa WSW 10.3 mph /  16.6 km/h 20.7 mph /  33.3 km/h 35 % 0.00 in /  0 mm
05:03 52.7 °F /  11.5 °C 25.8 °F /  -3.4 °C 29.89 in /  1012.1 hPa WSW 10.0 mph /  16.1 km/h 21.0 mph /  33.8 km/h 35 % 0.00 in /  0 mm
05:08 52.7 °F /  11.5 °C 25.7 °F /  -3.5 °C 29.89 in /  1012.1 hPa WSW 9.0 mph /  14.5 km/h 21.0 mph /  33.8 km/h 35 % 0.00 in /  0 mm
05:13 52.6 °F /  11.4 °C 25.7 °F /  -3.5 °C 29.89 in /  1012.1 hPa West 8.0 mph /  12.9 km/h 16.0 mph /  25.7 km/h 35 % 0.00 in /  0 mm
05:18 52.5 °F /  11.4 °C 26.3 °F /  -3.2 °C 29.89 in /  1012.1 hPa West 7.9 mph /  12.7 km/h 11.5 mph /  18.5 km/h 36 % 0.00 in /  0 mm
05:23 52.3 °F /  11.3 °C 26.1 °F /  -3.3 °C 29.89 in /  1012.1 hPa WSW 6.0 mph /  9.7 km/h 18.0 mph /  29 km/h 36 % 0.00 in /  0 mm
05:28 52.1 °F /  11.2 °C 25.9 °F /  -3.4 °C 29.89 in /  1012.1 hPa West 6.8 mph /  10.9 km/h 18.4 mph /  29.6 km/h 36 % 0.00 in /  0 mm
05:33 52.1 °F /  11.2 °C 25.9 °F /  -3.4 °C 29.89 in /  1012.1 hPa WSW 10.0 mph /  16.1 km/h 18.0 mph /  29 km/h 36 % 0.00 in /  0 mm
05:38 52.1 °F /  11.2 °C 25.9 °F /  -3.4 °C 29.89 in /  1012.1 hPa South 4.9 mph /  7.9 km/h 12.7 mph /  20.4 km/h 36 % 0.00 in /  0 mm
05:43 52.0 °F /  11.1 °C 26.5 °F /  -3.1 °C 29.89 in /  1012.1 hPa SW 11.2 mph /  18 km/h 18.4 mph /  29.6 km/h 37 % 0.00 in /  0 mm
05:48 51.8 °F /  11 °C 26.3 °F /  -3.2 °C 29.89 in /  1012.1 hPa WNW 7.0 mph /  11.3 km/h 12.7 mph /  20.4 km/h 37 % 0.00 in /  0 mm
05:49 51.8 °F /  11 °C 25.7 °F /  -3.5 °C 29.89 in /  1012.1 hPa SW 5.9 mph /  9.5 km/h 12.7 mph /  20.4 km/h 36 % 0.00 in /  0 mm
05:54 51.8 °F /  11 °C 25.7 °F /  -3.5 °C 29.89 in /  1012.1 hPa SW 7.1 mph /  11.4 km/h 12.7 mph /  20.4 km/h 36 % 0.00 in /  0 mm
05:59 51.8 °F /  11 °C 25.7 °F /  -3.5 °C 29.90 in /  1012.4 hPa West 10.3 mph /  16.6 km/h 11.5 mph /  18.5 km/h 36 % 0.00 in /  0 mm
06:04 51.8 °F /  11 °C 25.7 °F /  -3.5 °C 29.90 in /  1012.4 hPa SW 5.6 mph /  9 km/h 13.8 mph /  22.2 km/h 36 % 0.00 in /  0 mm
06:09 51.9 °F /  11.1 °C 25.8 °F /  -3.4 °C 29.90 in /  1012.4 hPa WSW 3.6 mph /  5.8 km/h 17.3 mph /  27.8 km/h 36 % 0.00 in /  0 mm
06:14 51.8 °F /  11 °C 25.7 °F /  -3.5 °C 29.89 in /  1012.1 hPa WSW 6.9 mph /  11.1 km/h 17.3 mph /  27.8 km/h 36 % 0.00 in /  0 mm
06:19 51.6 °F /  10.9 °C 25.5 °F /  -3.6 °C 29.89 in /  1012.1 hPa WNW 12.8 mph /  20.6 km/h 18.4 mph /  29.6 km/h 36 % 0.00 in /  0 mm
06:24 51.6 °F /  10.9 °C 24.8 °F /  -4 °C 29.90 in /  1012.4 hPa WSW 11.7 mph /  18.8 km/h 21.9 mph /  35.2 km/h 35 % 0.00 in /  0 mm
06:29 51.7 °F /  10.9 °C 24.9 °F /  -3.9 °C 29.90 in /  1012.4 hPa WSW 10.7 mph /  17.2 km/h 17.3 mph /  27.8 km/h 35 % 0.00 in /  0 mm
06:34 51.7 °F /  10.9 °C 25.6 °F /  -3.6 °C 29.90 in /  1012.4 hPa West 8.0 mph /  12.9 km/h 19.6 mph /  31.5 km/h 36 % 0.00 in /  0 mm
06:39 51.7 °F /  10.9 °C 24.9 °F /  -3.9 °C 29.90 in /  1012.4 hPa SW 9.3 mph /  15 km/h 15.0 mph /  24.1 km/h 35 % 0.00 in /  0 mm
06:44 51.8 °F /  11 °C 25.0 °F /  -3.9 °C 29.90 in /  1012.4 hPa West 6.9 mph /  11.1 km/h 15.0 mph /  24.1 km/h 35 % 0.00 in /  0 mm
06:50 51.9 °F /  11.1 °C 25.1 °F /  -3.8 °C 29.90 in /  1012.4 hPa SW 9.7 mph /  15.6 km/h 17.3 mph /  27.8 km/h 35 % 0.00 in /  0 mm
06:55 52.0 °F /  11.1 °C 25.2 °F /  -3.8 °C 29.91 in /  1012.8 hPa WSW 9.3 mph /  15 km/h 18.4 mph /  29.6 km/h 35 % 0.00 in /  0 mm
07:00 52.1 °F /  11.2 °C 25.3 °F /  -3.7 °C 29.90 in /  1012.4 hPa West 9.2 mph /  14.8 km/h 16.1 mph /  25.9 km/h 35 % 0.00 in /  0 mm
07:05 52.3 °F /  11.3 °C 24.7 °F /  -4.1 °C 29.90 in /  1012.4 hPa WNW 11.4 mph /  18.3 km/h 19.0 mph /  30.6 km/h 34 % 0.00 in /  0 mm
07:10 52.4 °F /  11.3 °C 24.8 °F /  -4 °C 29.91 in /  1012.8 hPa SW 6.5 mph /  10.5 km/h 11.5 mph /  18.5 km/h 34 % 0.00 in /  0 mm
07:15 52.5 °F /  11.4 °C 24.9 °F /  -3.9 °C 29.91 in /  1012.8 hPa SW 7.2 mph /  11.6 km/h 13.8 mph /  22.2 km/h 34 % 0.00 in /  0 mm
07:20 52.6 °F /  11.4 °C 25.0 °F /  -3.9 °C 29.91 in /  1012.8 hPa SW 13.5 mph /  21.7 km/h 15.0 mph /  24.1 km/h 34 % 0.00 in /  0 mm
07:25 52.8 °F /  11.6 °C 25.2 °F /  -3.8 °C 29.91 in /  1012.8 hPa WSW 5.6 mph /  9 km/h 19.6 mph /  31.5 km/h 34 % 0.00 in /  0 mm
07:30 52.9 °F /  11.6 °C 24.5 °F /  -4.2 °C 29.91 in /  1012.8 hPa WSW 5.7 mph /  9.2 km/h 12.7 mph /  20.4 km/h 33 % 0.00 in /  0 mm
07:35 53.1 °F /  11.7 °C 24.7 °F /  -4.1 °C 29.91 in /  1012.8 hPa SW 7.9 mph /  12.7 km/h 16.1 mph /  25.9 km/h 33 % 0.00 in /  0 mm
07:36 53.1 °F /  11.7 °C 24.7 °F /  -4.1 °C 29.91 in /  1012.8 hPa West 10.4 mph /  16.7 km/h 16.1 mph /  25.9 km/h 33 % 0.00 in /  0 mm
07:41 53.2 °F /  11.8 °C 24.8 °F /  -4 °C 29.91 in /  1012.8 hPa SW 8.0 mph /  12.9 km/h 17.3 mph /  27.8 km/h 33 % 0.00 in /  0 mm
07:46 53.3 °F /  11.8 °C 24.2 °F /  -4.3 °C 29.91 in /  1012.8 hPa SW 11.8 mph /  19 km/h 21.0 mph /  33.8 km/h 32 % 0.00 in /  0 mm
07:51 53.5 °F /  11.9 °C 24.3 °F /  -4.3 °C 29.91 in /  1012.8 hPa WSW 11.5 mph /  18.5 km/h 19.6 mph /  31.5 km/h 32 % 0.00 in /  0 mm
07:56 53.6 °F /  12 °C 25.2 °F /  -3.8 °C 29.91 in /  1012.8 hPa WNW 6.6 mph /  10.6 km/h 12.7 mph /  20.4 km/h 33 % 0.00 in /  0 mm
08:01 53.7 °F /  12.1 °C 25.2 °F /  -3.8 °C 29.91 in /  1012.8 hPa WSW 10.4 mph /  16.7 km/h 17.3 mph /  27.8 km/h 33 % 0.00 in /  0 mm
08:06 53.8 °F /  12.1 °C 24.6 °F /  -4.1 °C 29.91 in /  1012.8 hPa WSW 11.8 mph /  19 km/h 20.7 mph /  33.3 km/h 32 % 0.00 in /  0 mm
08:11 53.8 °F /  12.1 °C 24.6 °F /  -4.1 °C 29.91 in /  1012.8 hPa WSW 10.4 mph /  16.7 km/h 22.0 mph /  35.4 km/h 32 % 0.00 in /  0 mm
08:16 54.0 °F /  12.2 °C 25.5 °F /  -3.6 °C 29.92 in /  1013.1 hPa SW 7.1 mph /  11.4 km/h 17.0 mph /  27.4 km/h 33 % 0.00 in /  0 mm
08:21 54.1 °F /  12.3 °C 24.9 °F /  -3.9 °C 29.93 in /  1013.4 hPa West 12.2 mph /  19.6 km/h 21.9 mph /  35.2 km/h 32 % 0.00 in /  0 mm
08:26 54.1 °F /  12.3 °C 24.9 °F /  -3.9 °C 29.93 in /  1013.4 hPa SW 8.6 mph /  13.8 km/h 13.0 mph /  20.9 km/h 32 % 0.00 in /  0 mm
08:32 54.2 °F /  12.3 °C 23.4 °F /  -4.8 °C 29.93 in /  1013.4 hPa NW 10.7 mph /  17.2 km/h 20.7 mph /  33.3 km/h 30 % 0.00 in /  0 mm
08:37 54.3 °F /  12.4 °C 24.3 °F /  -4.3 °C 29.93 in /  1013.4 hPa WNW 6.2 mph /  10 km/h 18.4 mph /  29.6 km/h 31 % 0.00 in /  0 mm
08:42 54.3 °F /  12.4 °C 24.3 °F /  -4.3 °C 29.92 in /  1013.1 hPa WSW 9.1 mph /  14.6 km/h 19.6 mph /  31.5 km/h 31 % 0.00 in /  0 mm
08:47 54.4 °F /  12.4 °C 24.4 °F /  -4.2 °C 29.92 in /  1013.1 hPa West 11.2 mph /  18 km/h 19.6 mph /  31.5 km/h 31 % 0.00 in /  0 mm
08:52 54.4 °F /  12.4 °C 24.4 °F /  -4.2 °C 29.92 in /  1013.1 hPa NW 12.2 mph /  19.6 km/h 24.2 mph /  38.9 km/h 31 % 0.00 in /  0 mm
08:57 54.5 °F /  12.5 °C 24.4 °F /  -4.2 °C 29.92 in /  1013.1 hPa WSW 9.8 mph /  15.8 km/h 17.3 mph /  27.8 km/h 31 % 0.00 in /  0 mm
09:02 54.7 °F /  12.6 °C 24.6 °F /  -4.1 °C 29.92 in /  1013.1 hPa WSW 8.3 mph /  13.4 km/h 16.1 mph /  25.9 km/h 31 % 0.00 in /  0 mm
09:07 54.8 °F /  12.7 °C 22.3 °F /  -5.4 °C 29.93 in /  1013.4 hPa SW 13.1 mph /  21.1 km/h 21.0 mph /  33.8 km/h 28 % 0.00 in /  0 mm
09:12 54.9 °F /  12.7 °C 22.4 °F /  -5.3 °C 29.93 in /  1013.4 hPa SW 8.8 mph /  14.2 km/h 20.7 mph /  33.3 km/h 28 % 0.00 in /  0 mm
09:17 55.1 °F /  12.8 °C 22.5 °F /  -5.3 °C 29.93 in /  1013.4 hPa West 9.5 mph /  15.3 km/h 20.0 mph /  32.2 km/h 28 % 0.00 in /  0 mm
09:22 55.3 °F /  12.9 °C 22.7 °F /  -5.2 °C 29.92 in /  1013.1 hPa West 4.6 mph /  7.4 km/h 11.5 mph /  18.5 km/h 28 % 0.00 in /  0 mm
09:27 55.7 °F /  13.2 °C 22.2 °F /  -5.4 °C 29.92 in /  1013.1 hPa WNW 10.3 mph /  16.6 km/h 15.0 mph /  24.1 km/h 27 % 0.00 in /  0 mm
09:32 55.9 °F /  13.3 °C 23.2 °F /  -4.9 °C 29.93 in /  1013.4 hPa WNW 10.2 mph /  16.4 km/h 19.6 mph /  31.5 km/h 28 % 0.00 in /  0 mm
09:37 56.0 °F /  13.3 °C 22.4 °F /  -5.3 °C 29.92 in /  1013.1 hPa SW 8.9 mph /  14.3 km/h 15.0 mph /  24.1 km/h 27 % 0.00 in /  0 mm
09:42 56.1 °F /  13.4 °C 22.5 °F /  -5.3 °C 29.92 in /  1013.1 hPa WNW 7.9 mph /  12.7 km/h 15.0 mph /  24.1 km/h 27 % 0.00 in /  0 mm
09:48 56.0 °F /  13.3 °C 21.6 °F /  -5.8 °C 29.92 in /  1013.1 hPa West 8.1 mph /  13 km/h 17.0 mph /  27.4 km/h 26 % 0.00 in /  0 mm
09:53 56.1 °F /  13.4 °C 23.4 °F /  -4.8 °C 29.92 in /  1013.1 hPa SW 6.2 mph /  10 km/h 11.5 mph /  18.5 km/h 28 % 0.00 in /  0 mm
09:58 56.2 °F /  13.4 °C 21.7 °F /  -5.7 °C 29.92 in /  1013.1 hPa West 8.4 mph /  13.5 km/h 17.3 mph /  27.8 km/h 26 % 0.00 in /  0 mm
10:03 56.3 °F /  13.5 °C 22.7 °F /  -5.2 °C 29.92 in /  1013.1 hPa West 9.2 mph /  14.8 km/h 16.1 mph /  25.9 km/h 27 % 0.00 in /  0 mm
10:08 56.4 °F /  13.6 °C 22.8 °F /  -5.1 °C 29.91 in /  1012.8 hPa WSW 7.0 mph /  11.3 km/h 17.0 mph /  27.4 km/h 27 % 0.00 in /  0 mm
10:13 56.6 °F /  13.7 °C 22.1 °F /  -5.5 °C 29.92 in /  1013.1 hPa WSW 9.0 mph /  14.5 km/h 20.0 mph /  32.2 km/h 26 % 0.00 in /  0 mm
10:18 56.9 °F /  13.8 °C 21.4 °F /  -5.9 °C 29.92 in /  1013.1 hPa West 10.0 mph /  16.1 km/h 21.0 mph /  33.8 km/h 25 % 0.00 in /  0 mm
10:23 57.1 °F /  13.9 °C 21.6 °F /  -5.8 °C 29.92 in /  1013.1 hPa West 9.0 mph /  14.5 km/h 18.0 mph /  29 km/h 25 % 0.00 in /  0 mm
10:28 57.4 °F /  14.1 °C 21.8 °F /  -5.7 °C 29.92 in /  1013.1 hPa West 9.0 mph /  14.5 km/h 14.0 mph /  22.5 km/h 25 % 0.00 in /  0 mm
10:33 57.6 °F /  14.2 °C 22.9 °F /  -5.1 °C 29.92 in /  1013.1 hPa West 9.0 mph /  14.5 km/h 21.0 mph /  33.8 km/h 26 % 0.00 in /  0 mm
10:38 57.7 °F /  14.3 °C 23.0 °F /  -5 °C 29.92 in /  1013.1 hPa WNW 7.0 mph /  11.3 km/h 16.0 mph /  25.7 km/h 26 % 0.00 in /  0 mm
10:40 57.7 °F /  14.3 °C 22.1 °F /  -5.5 °C 29.92 in /  1013.1 hPa West 11.3 mph /  18.2 km/h 20.7 mph /  33.3 km/h 25 % 0.00 in /  0 mm
10:45 57.7 °F /  14.3 °C 21.1 °F /  -6.1 °C 29.92 in /  1013.1 hPa WNW 10.3 mph /  16.6 km/h 19.6 mph /  31.5 km/h 24 % 0.00 in /  0 mm
10:50 57.7 °F /  14.3 °C 21.1 °F /  -6.1 °C 29.92 in /  1013.1 hPa NW 7.8 mph /  12.6 km/h 12.0 mph /  19.3 km/h 24 % 0.00 in /  0 mm
10:55 57.8 °F /  14.3 °C 22.2 °F /  -5.4 °C 29.92 in /  1013.1 hPa West 5.9 mph /  9.5 km/h 16.1 mph /  25.9 km/h 25 % 0.00 in /  0 mm
11:00 58.0 °F /  14.4 °C 22.3 °F /  -5.4 °C 29.91 in /  1012.8 hPa WSW 8.7 mph /  14 km/h 13.0 mph /  20.9 km/h 25 % 0.00 in /  0 mm
11:05 58.0 °F /  14.4 °C 22.3 °F /  -5.4 °C 29.92 in /  1013.1 hPa WNW 10.1 mph /  16.3 km/h 17.3 mph /  27.8 km/h 25 % 0.00 in /  0 mm
11:10 58.0 °F /  14.4 °C 22.3 °F /  -5.4 °C 29.92 in /  1013.1 hPa NNW 6.8 mph /  10.9 km/h 12.7 mph /  20.4 km/h 25 % 0.00 in /  0 mm
11:15 58.2 °F /  14.6 °C 22.5 °F /  -5.3 °C 29.91 in /  1012.8 hPa WNW 7.1 mph /  11.4 km/h 11.5 mph /  18.5 km/h 25 % 0.00 in /  0 mm
11:20 58.3 °F /  14.6 °C 23.5 °F /  -4.7 °C 29.92 in /  1013.1 hPa WSW 7.6 mph /  12.2 km/h 12.0 mph /  19.3 km/h 26 % 0.00 in /  0 mm
11:25 58.4 °F /  14.7 °C 21.7 °F /  -5.7 °C 29.92 in /  1013.1 hPa WNW 8.5 mph /  13.7 km/h 15.0 mph /  24.1 km/h 24 % 0.00 in /  0 mm
11:30 58.4 °F /  14.7 °C 21.7 °F /  -5.7 °C 29.93 in /  1013.4 hPa SW 10.0 mph /  16.1 km/h 23.0 mph /  37 km/h 24 % 0.00 in /  0 mm
11:36 58.4 °F /  14.7 °C 22.7 °F /  -5.2 °C 29.92 in /  1013.1 hPa West 5.2 mph /  8.4 km/h 12.7 mph /  20.4 km/h 25 % 0.00 in /  0 mm
11:41 58.6 °F /  14.8 °C 23.8 °F /  -4.6 °C 29.92 in /  1013.1 hPa West 6.7 mph /  10.8 km/h 15.0 mph /  24.1 km/h 26 % 0.00 in /  0 mm
11:46 58.7 °F /  14.8 °C 23.9 °F /  -4.5 °C 29.92 in /  1013.1 hPa West 7.2 mph /  11.6 km/h 10.0 mph /  16.1 km/h 26 % 0.00 in /  0 mm
11:51 58.6 °F /  14.8 °C 25.6 °F /  -3.6 °C 29.91 in /  1012.8 hPa NW 3.7 mph /  6 km/h 10.4 mph /  16.7 km/h 28 % 0.00 in /  0 mm
11:56 58.5 °F /  14.7 °C 27.9 °F /  -2.3 °C 29.91 in /  1012.8 hPa NW 3.7 mph /  6 km/h 6.9 mph /  11.1 km/h 31 % 0.00 in /  0 mm
12:01 58.4 °F /  14.7 °C 27.9 °F /  -2.3 °C 29.92 in /  1013.1 hPa NW 3.6 mph /  5.8 km/h 9.2 mph /  14.8 km/h 31 % 0.00 in /  0 mm
12:06 58.4 °F /  14.7 °C 27.1 °F /  -2.7 °C 29.92 in /  1013.1 hPa WNW 5.8 mph /  9.3 km/h 13.8 mph /  22.2 km/h 30 % 0.00 in /  0 mm
12:11 58.0 °F /  14.4 °C 26.7 °F /  -2.9 °C 29.91 in /  1012.8 hPa NNW 3.4 mph /  5.5 km/h 15.0 mph /  24.1 km/h 30 % 0.00 in /  0 mm
12:16 57.7 °F /  14.3 °C 26.4 °F /  -3.1 °C 29.91 in /  1012.8 hPa NW 4.2 mph /  6.8 km/h 10.4 mph /  16.7 km/h 30 % 0.00 in /  0 mm
12:21 57.7 °F /  14.3 °C 27.2 °F /  -2.7 °C 29.91 in /  1012.8 hPa NW 6.4 mph /  10.3 km/h 12.7 mph /  20.4 km/h 31 % 0.00 in /  0 mm
12:26 57.6 °F /  14.2 °C 28.7 °F /  -1.8 °C 29.91 in /  1012.8 hPa WNW 7.0 mph /  11.3 km/h 9.2 mph /  14.8 km/h 33 % 0.00 in /  0 mm
12:31 57.4 °F /  14.1 °C 28.5 °F /  -1.9 °C 29.90 in /  1012.4 hPa NNW 4.3 mph /  6.9 km/h 6.9 mph /  11.1 km/h 33 % 0.00 in /  0 mm
12:36 57.5 °F /  14.2 °C 29.3 °F /  -1.5 °C 29.90 in /  1012.4 hPa NW 4.9 mph /  7.9 km/h 11.5 mph /  18.5 km/h 34 % 0.00 in /  0 mm
12:41 57.6 °F /  14.2 °C 29.4 °F /  -1.4 °C 29.89 in /  1012.1 hPa WNW 3.5 mph /  5.6 km/h 11.5 mph /  18.5 km/h 34 % 0.00 in /  0 mm
12:46 57.8 °F /  14.3 °C 28.1 °F /  -2.2 °C 29.90 in /  1012.4 hPa WNW 7.1 mph /  11.4 km/h 10.4 mph /  16.7 km/h 32 % 0.00 in /  0 mm
12:51 58.0 °F /  14.4 °C 27.5 °F /  -2.5 °C 29.89 in /  1012.1 hPa WNW 4.7 mph /  7.6 km/h 11.5 mph /  18.5 km/h 31 % 0.00 in /  0 mm
12:56 57.9 °F /  14.4 °C 28.2 °F /  -2.1 °C 29.89 in /  1012.1 hPa NNW 3.5 mph /  5.6 km/h 13.8 mph /  22.2 km/h 32 % 0.00 in /  0 mm
13:01 58.1 °F /  14.5 °C 29.8 °F /  -1.2 °C 29.89 in /  1012.1 hPa WNW 2.7 mph /  4.3 km/h 9.0 mph /  14.5 km/h 34 % 0.00 in /  0 mm
13:06 58.2 °F /  14.6 °C 27.7 °F /  -2.4 °C 29.89 in /  1012.1 hPa NW 5.7 mph /  9.2 km/h 9.2 mph /  14.8 km/h 31 % 0.00 in /  0 mm
13:11 58.4 °F /  14.7 °C 27.9 °F /  -2.3 °C 29.89 in /  1012.1 hPa WNW 4.5 mph /  7.2 km/h 10.4 mph /  16.7 km/h 31 % 0.00 in /  0 mm
13:16 58.6 °F /  14.8 °C 25.6 °F /  -3.6 °C 29.88 in /  1011.7 hPa WNW 3.9 mph /  6.3 km/h 11.5 mph /  18.5 km/h 28 % 0.00 in /  0 mm
13:21 59.1 °F /  15.1 °C 28.5 °F /  -1.9 °C 29.88 in /  1011.7 hPa NW 5.4 mph /  8.7 km/h 11.0 mph /  17.7 km/h 31 % 0.00 in /  0 mm
13:27 59.0 °F /  15 °C 27.6 °F /  -2.4 °C 29.88 in /  1011.7 hPa NW 7.1 mph /  11.4 km/h 10.0 mph /  16.1 km/h 30 % 0.00 in /  0 mm
13:32 58.8 °F /  14.9 °C 28.2 °F /  -2.1 °C 29.89 in /  1012.1 hPa NW 5.1 mph /  8.2 km/h 6.9 mph /  11.1 km/h 31 % 0.00 in /  0 mm
13:33 58.7 °F /  14.8 °C 28.1 °F /  -2.2 °C 29.90 in /  1012.4 hPa NNW 5.4 mph /  8.7 km/h 10.4 mph /  16.7 km/h 31 % 0.00 in /  0 mm
13:34 58.7 °F /  14.8 °C 28.1 °F /  -2.2 °C 29.90 in /  1012.4 hPa WNW 5.8 mph /  9.3 km/h 10.4 mph /  16.7 km/h 31 % 0.00 in /  0 mm
13:35 58.7 °F /  14.8 °C 27.3 °F /  -2.6 °C 29.89 in /  1012.1 hPa NNW 4.7 mph /  7.6 km/h 10.4 mph /  16.7 km/h 30 % 0.00 in /  0 mm
13:38 58.7 °F /  14.8 °C 27.3 °F /  -2.6 °C 29.89 in /  1012.1 hPa WNW 5.7 mph /  9.2 km/h 8.1 mph /  13 km/h 30 % 0.00 in /  0 mm
13:39 58.7 °F /  14.8 °C 26.5 °F /  -3.1 °C 29.89 in /  1012.1 hPa NW 6.8 mph /  10.9 km/h 11.5 mph /  18.5 km/h 29 % 0.00 in /  0 mm
13:40 58.7 °F /  14.8 °C 27.3 °F /  -2.6 °C 29.89 in /  1012.1 hPa WNW 4.8 mph /  7.7 km/h 8.1 mph /  13 km/h 30 % 0.00 in /  0 mm
13:42 58.7 °F /  14.8 °C 28.1 °F /  -2.2 °C 29.89 in /  1012.1 hPa West 5.6 mph /  9 km/h 9.2 mph /  14.8 km/h 31 % 0.00 in /  0 mm
13:45 58.8 °F /  14.9 °C 29.0 °F /  -1.7 °C 29.89 in /  1012.1 hPa NW 4.3 mph /  6.9 km/h 8.1 mph /  13 km/h 32 % 0.00 in /  0 mm
13:50 58.8 °F /  14.9 °C 27.4 °F /  -2.6 °C 29.89 in /  1012.1 hPa WNW 4.6 mph /  7.4 km/h 11.5 mph /  18.5 km/h 30 % 0.00 in /  0 mm
13:55 58.8 °F /  14.9 °C 27.4 °F /  -2.6 °C 29.89 in /  1012.1 hPa NNW 8.9 mph /  14.3 km/h 17.3 mph /  27.8 km/h 30 % 0.00 in /  0 mm
14:00 58.4 °F /  14.7 °C 27.9 °F /  -2.3 °C 29.89 in /  1012.1 hPa NNW 6.5 mph /  10.5 km/h 10.4 mph /  16.7 km/h 31 % 0.00 in /  0 mm
14:05 57.9 °F /  14.4 °C 28.2 °F /  -2.1 °C 29.89 in /  1012.1 hPa NW 6.5 mph /  10.5 km/h 10.4 mph /  16.7 km/h 32 % 0.00 in /  0 mm
14:10 57.6 °F /  14.2 °C 30.1 °F /  -1.1 °C 29.88 in /  1011.7 hPa WNW 3.0 mph /  4.8 km/h 8.1 mph /  13 km/h 35 % 0.00 in /  0 mm
14:15 57.5 °F /  14.2 °C 29.3 °F /  -1.5 °C 29.88 in /  1011.7 hPa NNW 4.2 mph /  6.8 km/h 10.4 mph /  16.7 km/h 34 % 0.00 in /  0 mm
14:20 57.5 °F /  14.2 °C 30.0 °F /  -1.1 °C 29.88 in /  1011.7 hPa NW 2.5 mph /  4 km/h 4.6 mph /  7.4 km/h 35 % 0.00 in /  0 mm
14:25 57.7 °F /  14.3 °C 26.4 °F /  -3.1 °C 29.88 in /  1011.7 hPa WNW 6.5 mph /  10.5 km/h 11.0 mph /  17.7 km/h 30 % 0.00 in /  0 mm
14:31 57.9 °F /  14.4 °C 27.4 °F /  -2.6 °C 29.89 in /  1012.1 hPa NW 6.9 mph /  11.1 km/h 9.2 mph /  14.8 km/h 31 % 0.00 in /  0 mm
14:36 58.0 °F /  14.4 °C 28.3 °F /  -2.1 °C 29.89 in /  1012.1 hPa NW 4.5 mph /  7.2 km/h 8.1 mph /  13 km/h 32 % 0.00 in /  0 mm
14:41 58.0 °F /  14.4 °C 29.0 °F /  -1.7 °C 29.88 in /  1011.7 hPa WNW 3.8 mph /  6.1 km/h 11.5 mph /  18.5 km/h 33 % 0.00 in /  0 mm
14:46 57.7 °F /  14.3 °C 29.5 °F /  -1.4 °C 29.88 in /  1011.7 hPa NW 5.7 mph /  9.2 km/h 9.2 mph /  14.8 km/h 34 % 0.00 in /  0 mm
14:51 57.3 °F /  14.1 °C 28.4 °F /  -2 °C 29.88 in /  1011.7 hPa NW 5.3 mph /  8.5 km/h 15.0 mph /  24.1 km/h 33 % 0.00 in /  0 mm
14:56 56.9 °F /  13.8 °C 28.1 °F /  -2.2 °C 29.88 in /  1011.7 hPa NW 6.8 mph /  10.9 km/h 12.7 mph /  20.4 km/h 33 % 0.00 in /  0 mm
15:01 56.6 °F /  13.7 °C 28.5 °F /  -1.9 °C 29.88 in /  1011.7 hPa WNW 3.8 mph /  6.1 km/h 5.8 mph /  9.3 km/h 34 % 0.00 in /  0 mm
15:06 56.3 °F /  13.5 °C 29.0 °F /  -1.7 °C 29.88 in /  1011.7 hPa NW 5.6 mph /  9 km/h 10.4 mph /  16.7 km/h 35 % 0.00 in /  0 mm
15:11 56.0 °F /  13.3 °C 29.4 °F /  -1.4 °C 29.88 in /  1011.7 hPa WNW 7.8 mph /  12.6 km/h 13.0 mph /  20.9 km/h 36 % 0.00 in /  0 mm
15:16 55.7 °F /  13.2 °C 27.7 °F /  -2.4 °C 29.88 in /  1011.7 hPa WNW 4.4 mph /  7.1 km/h 8.1 mph /  13 km/h 34 % 0.00 in /  0 mm
15:21 55.6 °F /  13.1 °C 29.7 °F /  -1.3 °C 29.88 in /  1011.7 hPa WNW 4.4 mph /  7.1 km/h 11.0 mph /  17.7 km/h 37 % 0.00 in /  0 mm
15:26 55.3 °F /  12.9 °C 30.1 °F /  -1.1 °C 29.88 in /  1011.7 hPa WNW 2.8 mph /  4.5 km/h 5.8 mph /  9.3 km/h 38 % 0.00 in /  0 mm
15:31 55.0 °F /  12.8 °C 29.8 °F /  -1.2 °C 29.88 in /  1011.7 hPa North 3.9 mph /  6.3 km/h 9.2 mph /  14.8 km/h 38 % 0.00 in /  0 mm
15:37 54.6 °F /  12.6 °C 30.1 °F /  -1.1 °C 29.89 in /  1012.1 hPa NNW 2.5 mph /  4 km/h 8.1 mph /  13 km/h 39 % 0.00 in /  0 mm
15:41 54.5 °F /  12.5 °C 30.0 °F /  -1.1 °C 29.89 in /  1012.1 hPa NW 4.9 mph /  7.9 km/h 8.1 mph /  13 km/h 39 % 0.00 in /  0 mm
15:46 54.3 °F /  12.4 °C 29.8 °F /  -1.2 °C 29.89 in /  1012.1 hPa NNW 3.9 mph /  6.3 km/h 7.0 mph /  11.3 km/h 39 % 0.00 in /  0 mm
15:51 54.1 °F /  12.3 °C 29.0 °F /  -1.7 °C 29.88 in /  1011.7 hPa NNW 3.1 mph /  5 km/h 8.1 mph /  13 km/h 38 % 0.00 in /  0 mm
15:56 54.0 °F /  12.2 °C 29.6 °F /  -1.3 °C 29.88 in /  1011.7 hPa WNW 4.7 mph /  7.6 km/h 9.0 mph /  14.5 km/h 39 % 0.00 in /  0 mm
16:01 53.9 °F /  12.2 °C 29.5 °F /  -1.4 °C 29.88 in /  1011.7 hPa NW 3.3 mph /  5.3 km/h 6.9 mph /  11.1 km/h 39 % 0.00 in /  0 mm
16:06 53.8 °F /  12.1 °C 29.4 °F /  -1.4 °C 29.88 in /  1011.7 hPa NW 3.3 mph /  5.3 km/h 7.0 mph /  11.3 km/h 39 % 0.00 in /  0 mm
16:11 53.7 °F /  12.1 °C 29.3 °F /  -1.5 °C 29.88 in /  1011.7 hPa NNW 4.1 mph /  6.6 km/h 8.1 mph /  13 km/h 39 % 0.00 in /  0 mm
16:16 53.5 °F /  11.9 °C 29.7 °F /  -1.3 °C 29.88 in /  1011.7 hPa West 1.5 mph /  2.4 km/h 5.8 mph /  9.3 km/h 40 % 0.00 in /  0 mm
16:21 53.3 °F /  11.8 °C 30.2 °F /  -1 °C 29.88 in /  1011.7 hPa West 4.9 mph /  7.9 km/h 8.0 mph /  12.9 km/h 41 % 0.00 in /  0 mm
16:26 53.1 °F /  11.7 °C 29.4 °F /  -1.4 °C 29.88 in /  1011.7 hPa NW 2.9 mph /  4.7 km/h 4.0 mph /  6.4 km/h 40 % 0.00 in /  0 mm
16:32 53.0 °F /  11.7 °C 29.9 °F /  -1.2 °C 29.88 in /  1011.7 hPa NW 2.9 mph /  4.7 km/h 5.8 mph /  9.3 km/h 41 % 0.00 in /  0 mm
16:37 52.8 °F /  11.6 °C 29.1 °F /  -1.6 °C 29.88 in /  1011.7 hPa WNW 4.3 mph /  6.9 km/h 6.9 mph /  11.1 km/h 40 % 0.00 in /  0 mm
16:42 52.7 °F /  11.5 °C 29.6 °F /  -1.3 °C 29.88 in /  1011.7 hPa NW 1.5 mph /  2.4 km/h 4.0 mph /  6.4 km/h 41 % 0.00 in /  0 mm
16:47 52.7 °F /  11.5 °C 29.6 °F /  -1.3 °C 29.89 in /  1012.1 hPa WNW 4.1 mph /  6.6 km/h 9.2 mph /  14.8 km/h 41 % 0.00 in /  0 mm
16:52 52.6 °F /  11.4 °C 30.1 °F /  -1.1 °C 29.89 in /  1012.1 hPa NW 2.7 mph /  4.3 km/h 3.5 mph /  5.6 km/h 42 % 0.00 in /  0 mm
16:57 52.4 °F /  11.3 °C 30.5 °F /  -0.8 °C 29.89 in /  1012.1 hPa NW 3.3 mph /  5.3 km/h 9.2 mph /  14.8 km/h 43 % 0.00 in /  0 mm
17:02 52.2 °F /  11.2 °C 31.5 °F /  -0.3 °C 29.89 in /  1012.1 hPa NW 1.7 mph /  2.7 km/h 4.6 mph /  7.4 km/h 45 % 0.00 in /  0 mm
17:07 51.9 °F /  11.1 °C 30.6 °F /  -0.8 °C 29.89 in /  1012.1 hPa NNW 1.9 mph /  3.1 km/h 5.0 mph /  8 km/h 44 % 0.00 in /  0 mm
17:12 51.7 °F /  10.9 °C 30.5 °F /  -0.8 °C 29.89 in /  1012.1 hPa WNW 3.8 mph /  6.1 km/h 6.9 mph /  11.1 km/h 44 % 0.00 in /  0 mm
17:17 51.4 °F /  10.8 °C 30.7 °F /  -0.7 °C 29.90 in /  1012.4 hPa WNW 2.0 mph /  3.2 km/h 3.5 mph /  5.6 km/h 45 % 0.00 in /  0 mm
17:22 51.2 °F /  10.7 °C 31.1 °F /  -0.5 °C 29.90 in /  1012.4 hPa NW 2.5 mph /  4 km/h 11.5 mph /  18.5 km/h 46 % 0.00 in /  0 mm
17:27 51.0 °F /  10.6 °C 30.9 °F /  -0.6 °C 29.90 in /  1012.4 hPa NW 4.9 mph /  7.9 km/h 8.1 mph /  13 km/h 46 % 0.00 in /  0 mm
17:33 50.7 °F /  10.4 °C 30.7 °F /  -0.7 °C 29.91 in /  1012.8 hPa WNW 7.1 mph /  11.4 km/h 11.5 mph /  18.5 km/h 46 % 0.00 in /  0 mm
17:38 50.5 °F /  10.3 °C 31.0 °F /  -0.6 °C 29.91 in /  1012.8 hPa NW 2.4 mph /  3.9 km/h 8.1 mph /  13 km/h 47 % 0.00 in /  0 mm
17:43 50.4 °F /  10.2 °C 31.4 °F /  -0.3 °C 29.91 in /  1012.8 hPa WNW 5.6 mph /  9 km/h 9.2 mph /  14.8 km/h 48 % 0.00 in /  0 mm
17:48 50.2 °F /  10.1 °C 30.7 °F /  -0.7 °C 29.92 in /  1013.1 hPa WNW 5.0 mph /  8 km/h 9.2 mph /  14.8 km/h 47 % 0.00 in /  0 mm
17:53 50.1 °F /  10.1 °C 31.2 °F /  -0.4 °C 29.92 in /  1013.1 hPa NW 3.0 mph /  4.8 km/h 9.0 mph /  14.5 km/h 48 % 0.00 in /  0 mm
17:58 50.1 °F /  10.1 °C 30.1 °F /  -1.1 °C 29.92 in /  1013.1 hPa NW 3.5 mph /  5.6 km/h 8.1 mph /  13 km/h 46 % 0.00 in /  0 mm
18:03 50.1 °F /  10.1 °C 29.6 °F /  -1.3 °C 29.92 in /  1013.1 hPa WNW 5.2 mph /  8.4 km/h 9.2 mph /  14.8 km/h 45 % 0.00 in /  0 mm
18:08 50.1 °F /  10.1 °C 29.6 °F /  -1.3 °C 29.93 in /  1013.4 hPa WNW 2.6 mph /  4.2 km/h 6.0 mph /  9.7 km/h 45 % 0.00 in /  0 mm
18:13 50.1 °F /  10.1 °C 29.6 °F /  -1.3 °C 29.92 in /  1013.1 hPa NW 3.6 mph /  5.8 km/h 5.8 mph /  9.3 km/h 45 % 0.00 in /  0 mm
18:18 50.1 °F /  10.1 °C 29.0 °F /  -1.7 °C 29.92 in /  1013.1 hPa WNW 0.3 mph /  0.5 km/h 4.6 mph /  7.4 km/h 44 % 0.00 in /  0 mm
18:23 50.1 °F /  10.1 °C 29.0 °F /  -1.7 °C 29.92 in /  1013.1 hPa WNW 2.2 mph /  3.5 km/h 6.0 mph /  9.7 km/h 44 % 0.00 in /  0 mm
18:28 50.0 °F /  10 °C 28.4 °F /  -2 °C 29.92 in /  1013.1 hPa West 2.8 mph /  4.5 km/h 6.9 mph /  11.1 km/h 43 % 0.00 in /  0 mm
18:33 49.9 °F /  9.9 °C 28.8 °F /  -1.8 °C 29.93 in /  1013.4 hPa WNW 2.3 mph /  3.7 km/h 5.8 mph /  9.3 km/h 44 % 0.00 in /  0 mm
18:38 49.9 °F /  9.9 °C 28.8 °F /  -1.8 °C 29.93 in /  1013.4 hPa WNW 2.1 mph /  3.4 km/h 4.0 mph /  6.4 km/h 44 % 0.00 in /  0 mm
18:44 49.7 °F /  9.8 °C 28.6 °F /  -1.9 °C 29.93 in /  1013.4 hPa West 2.5 mph /  4 km/h 9.2 mph /  14.8 km/h 44 % 0.00 in /  0 mm
18:49 49.7 °F /  9.8 °C 28.6 °F /  -1.9 °C 29.93 in /  1013.4 hPa NW 3.5 mph /  5.6 km/h 4.6 mph /  7.4 km/h 44 % 0.00 in /  0 mm
18:54 49.6 °F /  9.8 °C 29.1 °F /  -1.6 °C 29.94 in /  1013.8 hPa NW 3.1 mph /  5 km/h 5.0 mph /  8 km/h 45 % 0.00 in /  0 mm
18:59 49.6 °F /  9.8 °C 29.6 °F /  -1.3 °C 29.94 in /  1013.8 hPa WNW 3.1 mph /  5 km/h 7.0 mph /  11.3 km/h 46 % 0.00 in /  0 mm
19:04 49.5 °F /  9.7 °C 29.6 °F /  -1.3 °C 29.94 in /  1013.8 hPa West 3.4 mph /  5.5 km/h 8.1 mph /  13 km/h 46 % 0.00 in /  0 mm
19:09 49.4 °F /  9.7 °C 29.5 °F /  -1.4 °C 29.94 in /  1013.8 hPa WNW 1.6 mph /  2.6 km/h 6.0 mph /  9.7 km/h 46 % 0.00 in /  0 mm
19:14 49.2 °F /  9.6 °C 28.2 °F /  -2.1 °C 29.95 in /  1014.1 hPa NW 3.5 mph /  5.6 km/h 8.1 mph /  13 km/h 44 % 0.00 in /  0 mm
19:19 49.3 °F /  9.6 °C 28.3 °F /  -2.1 °C 29.95 in /  1014.1 hPa West 5.2 mph /  8.4 km/h 11.5 mph /  18.5 km/h 44 % 0.00 in /  0 mm
19:24 49.4 °F /  9.7 °C 27.8 °F /  -2.3 °C 29.95 in /  1014.1 hPa West 3.0 mph /  4.8 km/h 8.1 mph /  13 km/h 43 % 0.00 in /  0 mm
19:29 49.4 °F /  9.7 °C 27.8 °F /  -2.3 °C 29.95 in /  1014.1 hPa WNW 3.0 mph /  4.8 km/h 7.0 mph /  11.3 km/h 43 % 0.00 in /  0 mm
19:34 49.5 °F /  9.7 °C 27.9 °F /  -2.3 °C 29.95 in /  1014.1 hPa West 3.7 mph /  6 km/h 6.9 mph /  11.1 km/h 43 % 0.00 in /  0 mm
19:39 49.5 °F /  9.7 °C 27.3 °F /  -2.6 °C 29.95 in /  1014.1 hPa WNW 3.0 mph /  4.8 km/h 4.0 mph /  6.4 km/h 42 % 0.00 in /  0 mm
19:45 49.6 °F /  9.8 °C 28.0 °F /  -2.2 °C 29.96 in /  1014.4 hPa West 2.2 mph /  3.5 km/h 5.0 mph /  8 km/h 43 % 0.00 in /  0 mm
19:50 49.6 °F /  9.8 °C 28.0 °F /  -2.2 °C 29.95 in /  1014.1 hPa NW 2.9 mph /  4.7 km/h 5.8 mph /  9.3 km/h 43 % 0.00 in /  0 mm
19:55 49.6 °F /  9.8 °C 28.0 °F /  -2.2 °C 29.96 in /  1014.4 hPa WNW 1.0 mph /  1.6 km/h 3.5 mph /  5.6 km/h 43 % 0.00 in /  0 mm
20:00 49.6 °F /  9.8 °C 28.6 °F /  -1.9 °C 29.95 in /  1014.1 hPa WNW 2.8 mph /  4.5 km/h 4.6 mph /  7.4 km/h 44 % 0.00 in /  0 mm
20:05 49.5 °F /  9.7 °C 29.0 °F /  -1.7 °C 29.96 in /  1014.4 hPa WNW 2.8 mph /  4.5 km/h 4.6 mph /  7.4 km/h 45 % 0.00 in /  0 mm
20:10 49.4 °F /  9.7 °C 28.4 °F /  -2 °C 29.96 in /  1014.4 hPa NW 1.7 mph /  2.7 km/h 5.0 mph /  8 km/h 44 % 0.00 in /  0 mm
20:15 49.3 °F /  9.6 °C 28.3 °F /  -2.1 °C 29.96 in /  1014.4 hPa WNW 5.1 mph /  8.2 km/h 8.0 mph /  12.9 km/h 44 % 0.00 in /  0 mm
20:20 49.3 °F /  9.6 °C 28.3 °F /  -2.1 °C 29.96 in /  1014.4 hPa NW 1.6 mph /  2.6 km/h 8.1 mph /  13 km/h 44 % 0.00 in /  0 mm
20:25 49.2 °F /  9.6 °C 28.2 °F /  -2.1 °C 29.95 in /  1014.1 hPa NNW 1.0 mph /  1.6 km/h 4.6 mph /  7.4 km/h 44 % 0.00 in /  0 mm
20:30 49.2 °F /  9.6 °C 28.7 °F /  -1.8 °C 29.95 in /  1014.1 hPa WNW 3.7 mph /  6 km/h 7.0 mph /  11.3 km/h 45 % 0.00 in /  0 mm
20:35 49.1 °F /  9.5 °C 29.7 °F /  -1.3 °C 29.95 in /  1014.1 hPa NNW 3.5 mph /  5.6 km/h 8.1 mph /  13 km/h 47 % 0.00 in /  0 mm
20:40 49.0 °F /  9.4 °C 30.1 °F /  -1.1 °C 29.95 in /  1014.1 hPa NNW 3.2 mph /  5.1 km/h 7.0 mph /  11.3 km/h 48 % 0.00 in /  0 mm
20:45 48.8 °F /  9.3 °C 30.0 °F /  -1.1 °C 29.95 in /  1014.1 hPa NW 4.9 mph /  7.9 km/h 8.1 mph /  13 km/h 48 % 0.00 in /  0 mm
20:50 48.7 °F /  9.3 °C 29.4 °F /  -1.4 °C 29.96 in /  1014.4 hPa WNW 3.9 mph /  6.3 km/h 7.0 mph /  11.3 km/h 47 % 0.00 in /  0 mm
20:55 48.6 °F /  9.2 °C 29.8 °F /  -1.2 °C 29.96 in /  1014.4 hPa NW 3.9 mph /  6.3 km/h 8.1 mph /  13 km/h 48 % 0.00 in /  0 mm
21:01 48.5 °F /  9.2 °C 30.2 °F /  -1 °C 29.96 in /  1014.4 hPa NW 2.8 mph /  4.5 km/h 6.0 mph /  9.7 km/h 49 % 0.00 in /  0 mm
21:06 48.5 °F /  9.2 °C 30.7 °F /  -0.7 °C 29.96 in /  1014.4 hPa NW 3.3 mph /  5.3 km/h 5.8 mph /  9.3 km/h 50 % 0.00 in /  0 mm
21:11 48.3 °F /  9.1 °C 30.0 °F /  -1.1 °C 29.96 in /  1014.4 hPa NW 5.5 mph /  8.9 km/h 6.9 mph /  11.1 km/h 49 % 0.00 in /  0 mm
21:16 48.2 °F /  9 °C 29.4 °F /  -1.4 °C 29.96 in /  1014.4 hPa NW 7.0 mph /  11.3 km/h 9.2 mph /  14.8 km/h 48 % 0.00 in /  0 mm
21:21 48.2 °F /  9 °C 29.4 °F /  -1.4 °C 29.96 in /  1014.4 hPa NNW 3.6 mph /  5.8 km/h 8.1 mph /  13 km/h 48 % 0.00 in /  0 mm
21:26 48.2 °F /  9 °C 28.9 °F /  -1.7 °C 29.95 in /  1014.1 hPa WNW 6.8 mph /  10.9 km/h 11.5 mph /  18.5 km/h 47 % 0.00 in /  0 mm
21:31 48.3 °F /  9.1 °C 29.0 °F /  -1.7 °C 29.96 in /  1014.4 hPa West 6.4 mph /  10.3 km/h 11.5 mph /  18.5 km/h 47 % 0.00 in /  0 mm
21:36 48.3 °F /  9.1 °C 29.0 °F /  -1.7 °C 29.96 in /  1014.4 hPa NW 3.5 mph /  5.6 km/h 5.0 mph /  8 km/h 47 % 0.00 in /  0 mm
21:41 48.3 °F /  9.1 °C 28.5 °F /  -1.9 °C 29.95 in /  1014.1 hPa NW 1.8 mph /  2.9 km/h 4.0 mph /  6.4 km/h 46 % 0.00 in /  0 mm
21:46 48.3 °F /  9.1 °C 27.4 °F /  -2.6 °C 29.97 in /  1014.8 hPa NW 4.8 mph /  7.7 km/h 10.4 mph /  16.7 km/h 44 % 0.00 in /  0 mm
21:51 48.3 °F /  9.1 °C 27.4 °F /  -2.6 °C 29.95 in /  1014.1 hPa WNW 3.4 mph /  5.5 km/h 9.2 mph /  14.8 km/h 44 % 0.00 in /  0 mm
21:56 48.4 °F /  9.1 °C 27.5 °F /  -2.5 °C 29.95 in /  1014.1 hPa NNW 5.8 mph /  9.3 km/h 10.4 mph /  16.7 km/h 44 % 0.00 in /  0 mm
22:02 48.4 °F /  9.1 °C 29.1 °F /  -1.6 °C 29.94 in /  1013.8 hPa WNW 3.5 mph /  5.6 km/h 8.1 mph /  13 km/h 47 % 0.00 in /  0 mm
22:07 48.3 °F /  9.1 °C 29.0 °F /  -1.7 °C 29.96 in /  1014.4 hPa NW 4.6 mph /  7.4 km/h 9.2 mph /  14.8 km/h 47 % 0.00 in /  0 mm
22:12 48.2 °F /  9 °C 28.9 °F /  -1.7 °C 29.95 in /  1014.1 hPa WNW 3.2 mph /  5.1 km/h 5.8 mph /  9.3 km/h 47 % 0.00 in /  0 mm
22:17 48.1 °F /  8.9 °C 28.8 °F /  -1.8 °C 29.95 in /  1014.1 hPa NW 3.1 mph /  5 km/h 7.0 mph /  11.3 km/h 47 % 0.00 in /  0 mm
22:22 47.9 °F /  8.8 °C 28.6 °F /  -1.9 °C 29.96 in /  1014.4 hPa NNW 5.4 mph /  8.7 km/h 10.4 mph /  16.7 km/h 47 % 0.00 in /  0 mm
22:27 47.9 °F /  8.8 °C 29.1 °F /  -1.6 °C 29.95 in /  1014.1 hPa NNW 2.2 mph /  3.5 km/h 7.0 mph /  11.3 km/h 48 % 0.00 in /  0 mm
22:32 47.8 °F /  8.8 °C 29.5 °F /  -1.4 °C 29.95 in /  1014.1 hPa WNW 4.0 mph /  6.4 km/h 9.2 mph /  14.8 km/h 49 % 0.00 in /  0 mm
22:37 47.6 °F /  8.7 °C 29.9 °F /  -1.2 °C 29.94 in /  1013.8 hPa WNW 2.1 mph /  3.4 km/h 5.8 mph /  9.3 km/h 50 % 0.00 in /  0 mm
22:42 47.5 °F /  8.6 °C 29.8 °F /  -1.2 °C 29.95 in /  1014.1 hPa NNW 1.7 mph /  2.7 km/h 4.0 mph /  6.4 km/h 50 % 0.00 in /  0 mm
22:47 47.3 °F /  8.5 °C 28.6 °F /  -1.9 °C 29.95 in /  1014.1 hPa West 0.4 mph /  0.6 km/h 2.3 mph /  3.7 km/h 48 % 0.00 in /  0 mm
22:52 47.2 °F /  8.4 °C 28.5 °F /  -1.9 °C 29.96 in /  1014.4 hPa Calm     48 % 0.00 in /  0 mm
22:57 47.2 °F /  8.4 °C 29.0 °F /  -1.7 °C 29.96 in /  1014.4 hPa West 0.1 mph /  0.2 km/h 3.5 mph /  5.6 km/h 49 % 0.00 in /  0 mm
23:03 47.1 °F /  8.4 °C 28.9 °F /  -1.7 °C 29.96 in /  1014.4 hPa Calm     49 % 0.00 in /  0 mm
23:08 47.1 °F /  8.4 °C 28.9 °F /  -1.7 °C 29.97 in /  1014.8 hPa West 1.4 mph /  2.3 km/h 2.3 mph /  3.7 km/h 49 % 0.00 in /  0 mm
23:13 46.9 °F /  8.3 °C 28.7 °F /  -1.8 °C 29.96 in /  1014.4 hPa West 0.1 mph /  0.2 km/h   49 % 0.00 in /  0 mm
23:18 46.8 °F /  8.2 °C 27.6 °F /  -2.4 °C 29.96 in /  1014.4 hPa West 0.8 mph /  1.3 km/h 2.3 mph /  3.7 km/h 47 % 0.00 in /  0 mm
23:23 46.7 °F /  8.2 °C 27.5 °F /  -2.5 °C 29.96 in /  1014.4 hPa WNW 0.2 mph /  0.3 km/h 2.3 mph /  3.7 km/h 47 % 0.00 in /  0 mm
23:28 46.6 °F /  8.1 °C 27.4 °F /  -2.6 °C 29.97 in /  1014.8 hPa WNW 1.0 mph /  1.6 km/h 2.0 mph /  3.2 km/h 47 % 0.00 in /  0 mm
23:33 46.5 °F /  8.1 °C 26.8 °F /  -2.9 °C 29.96 in /  1014.4 hPa Calm   3.0 mph /  4.8 km/h 46 % 0.00 in /  0 mm
23:38 46.4 °F /  8 °C 26.7 °F /  -2.9 °C 29.96 in /  1014.4 hPa WNW 1.0 mph /  1.6 km/h 4.0 mph /  6.4 km/h 46 % 0.00 in /  0 mm
23:43 46.3 °F /  7.9 °C 25.6 °F /  -3.6 °C 29.95 in /  1014.1 hPa NW 5.0 mph /  8 km/h 7.0 mph /  11.3 km/h 44 % 0.00 in /  0 mm
23:48 46.4 °F /  8 °C 25.6 °F /  -3.6 °C 29.95 in /  1014.1 hPa NW 2.0 mph /  3.2 km/h 7.0 mph /  11.3 km/h 44 % 0.00 in /  0 mm
23:53 46.4 °F /  8 °C 25.6 °F /  -3.6 °C 29.95 in /  1014.1 hPa NNW 3.0 mph /  4.8 km/h 7.0 mph /  11.3 km/h 44 % 0.00 in /  0 mm
23:58 46.5 °F /  8.1 °C 25.7 °F /  -3.5 °C 29.95 in /  1014.1 hPa WNW 3.6 mph /  5.8 km/h 5.0 mph /  8 km/h 44 % 0.00 in /  0 mm
Crab Meadow Weather
Compliments of Weather Underground - 3.25 mb

Script developed by  Jim McMurry - jmcmurry@mwt.net Adapted for the template by  Wim van der Kuil - Leuven-Template.eu

Recycling: Americans use 85,000,000 tons of paper a year; about 680 pounds per person.